Time;durP1;ratioP1;P1;durP2;ratioP2;P2;SDS_P1;SDS_P2;PMS_P1;PMS_P2;Temp;Humidity;BMP_temperature;BMP_pressure;BME280_temperature;BME280_humidity;BME280_pressure;Samples;Min_cycle;Max_cycle;Signal;HPM_P1;HPM_P2
2022/07/20 00:00:39;;;;;;;;;;;;;;;;;;5115311;28;20023;-77
2022/07/20 00:03:05;;;;;;;;;;;;;;;;;;5114001;28;19919;-77
2022/07/20 00:05:30;;;;;;;;;;;;;;;;;;5113815;28;19912;-76
2022/07/20 00:07:55;;;;;;;;;;;;;;;;;;5096888;28;20341;-76
2022/07/20 00:13:05;;;;;;;;;;;;;;;;;;5114125;28;20007;-76
2022/07/20 00:15:30;;;;;;;;;;;;;;;;;;5096793;28;19946;-76
2022/07/20 00:17:55;;;;;;;;;;;;;;;;;;5114021;28;19920;-76
2022/07/20 00:20:20;;;;;;;;;;;;;;;;;;5114842;28;19920;-77
2022/07/20 00:22:46;;;;;;;;;;;;;;;;;;5113566;28;19931;-76
2022/07/20 00:25:11;;;;;;;;;;;;;;;;;;5114657;28;19930;-76
2022/07/20 00:27:36;;;;;;;;;;;;;;;;;;5114933;28;20010;-76
2022/07/20 00:30:02;;;;;;;;;;;;;;;;;;5113629;28;19924;-77
2022/07/20 00:32:27;;;;;;;;;;;;;;;;;;5113333;28;20014;-77
2022/07/20 00:34:53;;;;;;;;;;;;;;;;;;5114633;28;19995;-77
2022/07/20 00:37:18;;;;;;;;;;;;;;;;;;5113355;28;19919;-76
2022/07/20 00:39:43;;;;;;;;;;;;;;;;;;5113418;28;20366;-77
2022/07/20 00:42:08;;;;;;;;;;;;;;;;;;5114712;28;19920;-76
2022/07/20 00:44:34;;;;;;;;;;;;;;;;;;5114608;28;20393;-77
2022/07/20 00:46:59;;;;;;;;;;;;;;;;;;5114337;28;19922;-76
2022/07/20 00:49:24;;;;;;;;;;;;;;;;;;5113111;28;19979;-77
2022/07/20 00:51:50;;;;;;;;;;;;;;;;;;5114323;28;19951;-77
2022/07/20 00:54:15;;;;;;;;;;;;;;;;;;5112324;28;20354;-77
2022/07/20 00:56:41;;;;;;;;;;;;;;;;;;5113229;28;20017;-77
2022/07/20 00:59:06;;;;;;;;;;;;;;;;;;5095724;28;19972;-77
2022/07/20 01:01:32;;;;;;;;;;;;;;;;;;5114729;28;19928;-77
2022/07/20 01:03:58;;;;;;;;;;;;;;;;;;5113060;28;19918;-77
2022/07/20 01:06:23;;;;;;;;;;;;;;;;;;5113050;28;19918;-77
2022/07/20 01:08:51;;;;;;;;;;;;;;;;;;5112771;28;19915;-77
2022/07/20 01:11:17;;;;;;;;;;;;;;;;;;5113267;28;19949;-77
2022/07/20 01:13:42;;;;;;;;;;;;;;;;;;5095519;28;19920;-77
2022/07/20 01:16:07;;;;;;;;;;;;;;;;;;5112999;28;19965;-77
2022/07/20 01:18:33;;;;;;;;;;;;;;;;;;5114050;28;19939;-77
2022/07/20 01:20:59;;;;;;;;;;;;;;;;;;5112699;28;19924;-77
2022/07/20 01:23:24;;;;;;;;;;;;;;;;;;5112379;28;19915;-78
2022/07/20 01:25:49;;;;;;;;;;;;;;;;;;5113826;28;19922;-78
2022/07/20 01:28:14;;;;;;;;;;;;;;;;;;5095971;28;20293;-77
2022/07/20 01:30:40;;;;;;;;;;;;;;;;;;5113979;28;19939;-77
2022/07/20 01:33:05;;;;;;;;;;;;;;;;;;5095262;28;19912;-77
2022/07/20 01:35:31;;;;;;;;;;;;;;;;;;5112473;28;19912;-77
2022/07/20 01:37:56;;;;;;;;;;;;;;;;;;5112251;28;20437;-77
2022/07/20 01:40:21;;;;;;;;;;;;;;;;;;5112049;28;19926;-77
2022/07/20 01:42:47;;;;;;;;;;;;;;;;;;5112090;28;19912;-77
2022/07/20 01:45:12;;;;;;;;;;;;;;;;;;5095427;28;19964;-77
2022/07/20 01:47:37;;;;;;;;;;;;;;;;;;5113600;28;19961;-77
2022/07/20 01:50:03;;;;;;;;;;;;;;;;;;5112232;28;19912;-77
2022/07/20 01:52:28;;;;;;;;;;;;;;;;;;5112063;28;19968;-77
2022/07/20 01:54:53;;;;;;;;;;;;;;;;;;5113337;28;19916;-76
2022/07/20 01:57:19;;;;;;;;;;;;;;;;;;5113678;28;20281;-76
2022/07/20 01:59:44;;;;;;;;;;;;;;;;;;5113207;28;19924;-76
2022/07/20 02:02:09;;;;;;;;;;;;;;;;;;5113104;28;19923;-77
2022/07/20 02:04:35;;;;;;;;;;;;;;;;;;5113033;28;19916;-77
2022/07/20 02:07:01;;;;;;;;;;;;;;;;;;5119218;28;19916;-78
2022/07/20 02:09:26;;;;;;;;;;;;;;;;;;5118792;28;19919;-77
2022/07/20 02:11:51;;;;;;;;;;;;;;;;;;5120051;28;19919;-78
2022/07/20 02:14:16;;;;;;;;;;;;;;;;;;5118758;28;20231;-78
2022/07/20 02:16:42;;;;;;;;;;;;;;;;;;5118693;28;19958;-77
2022/07/20 02:19:07;;;;;;;;;;;;;;;;;;5120223;28;20397;-77
2022/07/20 02:21:32;;;;;;;;;;;;;;;;;;5118826;28;19927;-78
2022/07/20 02:23:58;;;;;;;;;;;;;;;;;;5119944;28;19916;-77
2022/07/20 02:26:23;;;;;;;;;;;;;;;;;;5118621;28;19923;-77
2022/07/20 02:28:48;;;;;;;;;;;;;;;;;;5120225;28;19916;-77
2022/07/20 02:31:14;;;;;;;;;;;;;;;;;;5118758;28;20378;-77
2022/07/20 02:33:39;;;;;;;;;;;;;;;;;;5120155;28;19926;-77
2022/07/20 02:36:04;;;;;;;;;;;;;;;;;;5101575;28;19912;-77
2022/07/20 02:38:30;;;;;;;;;;;;;;;;;;5119776;28;19920;-77
2022/07/20 02:40:55;;;;;;;;;;;;;;;;;;5119704;28;19961;-77
2022/07/20 02:43:20;;;;;;;;;;;;;;;;;;5118395;28;19915;-77
2022/07/20 02:45:46;;;;;;;;;;;;;;;;;;5118423;28;19973;-77
2022/07/20 02:48:11;;;;;;;;;;;;;;;;;;5119552;28;19954;-77
2022/07/20 02:50:38;;;;;;;;;;;;;;;;;;5119898;28;20278;-77
2022/07/20 02:53:03;;;;;;;;;;;;;;;;;;5118438;28;20327;-77
2022/07/20 02:55:29;;;;;;;;;;;;;;;;;;5118480;28;19969;-77
2022/07/20 02:57:54;;;;;;;;;;;;;;;;;;5119550;28;20040;-77
2022/07/20 03:00:19;;;;;;;;;;;;;;;;;;5119400;28;19931;-77
2022/07/20 03:02:47;;;;;;;;;;;;;;;;;;5100764;28;21321;-77
2022/07/20 03:05:12;;;;;;;;;;;;;;;;;;5119583;28;19920;-77
2022/07/20 03:07:38;;;;;;;;;;;;;;;;;;5118350;28;19934;-77
2022/07/20 03:10:04;;;;;;;;;;;;;;;;;;5118306;28;19922;-77
2022/07/20 03:12:29;;;;;;;;;;;;;;;;;;5118361;28;20335;-77
2022/07/20 03:14:54;;;;;;;;;;;;;;;;;;5119782;28;19951;-77
2022/07/20 03:17:20;;;;;;;;;;;;;;;;;;5114992;28;19962;-78
2022/07/20 03:19:45;;;;;;;;;;;;;;;;;;5116448;28;19923;-77
2022/07/20 03:22:11;;;;;;;;;;;;;;;;;;5097687;28;19915;-77
2022/07/20 03:24:37;;;;;;;;;;;;;;;;;;5115019;28;20357;-77
2022/07/20 03:27:02;;;;;;;;;;;;;;;;;;5097923;28;20270;-77
2022/07/20 03:29:28;;;;;;;;;;;;;;;;;;5114539;28;19912;-78
2022/07/20 03:31:53;;;;;;;;;;;;;;;;;;5116401;28;20049;-79
2022/07/20 03:34:18;;;;;;;;;;;;;;;;;;5114862;28;20053;-79
2022/07/20 03:36:44;;;;;;;;;;;;;;;;;;5097427;28;19915;-79
2022/07/20 03:39:09;;;;;;;;;;;;;;;;;;5114642;28;20003;-79
2022/07/20 03:41:34;;;;;;;;;;;;;;;;;;5097873;28;19919;-79
2022/07/20 03:44:00;;;;;;;;;;;;;;;;;;5115893;28;19981;-79
2022/07/20 03:46:25;;;;;;;;;;;;;;;;;;5116223;28;19922;-78
2022/07/20 03:48:50;;;;;;;;;;;;;;;;;;5115616;28;19916;-79
2022/07/20 03:51:15;;;;;;;;;;;;;;;;;;5115775;28;20376;-79
2022/07/20 03:53:41;;;;;;;;;;;;;;;;;;5115967;28;19922;-77
2022/07/20 03:56:06;;;;;;;;;;;;;;;;;;5114357;28;19916;-77
2022/07/20 03:58:31;;;;;;;;;;;;;;;;;;5097740;28;20011;-77
2022/07/20 04:00:57;;;;;;;;;;;;;;;;;;5097168;28;19924;-77
2022/07/20 04:03:22;;;;;;;;;;;;;;;;;;5114470;28;20023;-77
2022/07/20 04:05:47;;;;;;;;;;;;;;;;;;5114210;28;19916;-77
2022/07/20 04:08:13;;;;;;;;;;;;;;;;;;5115688;28;19916;-78
2022/07/20 04:10:38;;;;;;;;;;;;;;;;;;5115625;28;19923;-77
2022/07/20 04:13:03;;;;;;;;;;;;;;;;;;5115899;28;20011;-77
2022/07/20 04:15:29;;;;;;;;;;;;;;;;;;5115903;28;19958;-78
2022/07/20 04:17:54;;;;;;;;;;;;;;;;;;5114583;28;19941;-76
2022/07/20 04:20:19;;;;;;;;;;;;;;;;;;5115506;28;19985;-78
2022/07/20 04:22:44;;;;;;;;;;;;;;;;;;5114063;28;19916;-78
2022/07/20 04:25:10;;;;;;;;;;;;;;;;;;5113930;28;19912;-78
2022/07/20 04:27:35;;;;;;;;;;;;;;;;;;5114639;28;19916;-77
2022/07/20 04:30:00;;;;;;;;;;;;;;;;;;5114772;28;19935;-79
2022/07/20 04:32:26;;;;;;;;;;;;;;;;;;5114395;28;19973;-79
2022/07/20 04:34:51;;;;;;;;;;;;;;;;;;5115761;28;19912;-78
2022/07/20 04:37:16;;;;;;;;;;;;;;;;;;5113830;28;20293;-78
2022/07/20 04:39:42;;;;;;;;;;;;;;;;;;5115115;28;19995;-78
2022/07/20 04:42:07;;;;;;;;;;;;;;;;;;5113611;28;19920;-78
2022/07/20 04:44:32;;;;;;;;;;;;;;;;;;5115796;28;19919;-77
2022/07/20 04:46:57;;;;;;;;;;;;;;;;;;5116382;28;19963;-78
2022/07/20 04:49:23;;;;;;;;;;;;;;;;;;5122802;28;19916;-78
2022/07/20 04:51:48;;;;;;;;;;;;;;;;;;5110870;28;19923;-78
2022/07/20 04:54:13;;;;;;;;;;;;;;;;;;5122597;28;19939;-79
2022/07/20 04:56:38;;;;;;;;;;;;;;;;;;5120526;28;19928;-77
2022/07/20 04:59:04;;;;;;;;;;;;;;;;;;5118802;28;20019;-78
2022/07/20 05:01:29;;;;;;;;;;;;;;;;;;5118972;28;19949;-78
2022/07/20 05:03:55;;;;;;;;;;;;;;;;;;5115828;28;19911;-80
2022/07/20 05:06:20;;;;;;;;;;;;;;;;;;5116450;28;19920;-78
2022/07/20 05:08:46;;;;;;;;;;;;;;;;;;5115287;28;20393;-79
2022/07/20 05:11:11;;;;;;;;;;;;;;;;;;5115302;28;20273;-80
2022/07/20 05:13:37;;;;;;;;;;;;;;;;;;5099763;28;19912;-79
2022/07/20 05:16:02;;;;;;;;;;;;;;;;;;5115998;28;19919;-79
2022/07/20 05:18:28;;;;;;;;;;;;;;;;;;5116618;28;19912;-79
2022/07/20 05:20:53;;;;;;;;;;;;;;;;;;5125649;28;20011;-77
2022/07/20 05:23:18;;;;;;;;;;;;;;;;;;5118353;28;19955;-77
2022/07/20 05:25:44;;;;;;;;;;;;;;;;;;5115276;28;19916;-77
2022/07/20 05:28:09;;;;;;;;;;;;;;;;;;5126053;28;19916;-78
2022/07/20 05:30:34;;;;;;;;;;;;;;;;;;5116231;28;19965;-78
2022/07/20 05:32:59;;;;;;;;;;;;;;;;;;5115691;28;20346;-78
2022/07/20 05:35:25;;;;;;;;;;;;;;;;;;5122291;28;19919;-79
2022/07/20 05:37:50;;;;;;;;;;;;;;;;;;5133161;28;19916;-78
2022/07/20 05:40:16;;;;;;;;;;;;;;;;;;5116150;28;19949;-78
2022/07/20 05:42:42;;;;;;;;;;;;;;;;;;5113957;28;20168;-77
2022/07/20 05:45:07;;;;;;;;;;;;;;;;;;5115538;28;19958;-78
2022/07/20 05:47:32;;;;;;;;;;;;;;;;;;5118315;28;19950;-78
2022/07/20 05:49:58;;;;;;;;;;;;;;;;;;5113469;28;19960;-77
2022/07/20 05:52:23;;;;;;;;;;;;;;;;;;5113984;28;20270;-77
2022/07/20 05:54:48;;;;;;;;;;;;;;;;;;5114076;28;20006;-76
2022/07/20 05:57:14;;;;;;;;;;;;;;;;;;5113989;28;19916;-77
2022/07/20 05:59:39;;;;;;;;;;;;;;;;;;5112470;28;20360;-77
2022/07/20 06:02:04;;;;;;;;;;;;;;;;;;5113697;28;19924;-76
2022/07/20 06:04:30;;;;;;;;;;;;;;;;;;5112580;28;19966;-77
2022/07/20 06:06:55;;;;;;;;;;;;;;;;;;5112826;28;19965;-76
2022/07/20 06:09:20;;;;;;;;;;;;;;;;;;5113598;28;20331;-76
2022/07/20 06:11:45;;;;;;;;;;;;;;;;;;5114195;28;19959;-77
2022/07/20 06:14:11;;;;;;;;;;;;;;;;;;5114197;28;19938;-76
2022/07/20 06:16:36;;;;;;;;;;;;;;;;;;5113790;28;19973;-77
2022/07/20 06:19:01;;;;;;;;;;;;;;;;;;5113771;28;19920;-77
2022/07/20 06:21:26;;;;;;;;;;;;;;;;;;5113655;28;20359;-77
2022/07/20 06:23:52;;;;;;;;;;;;;;;;;;5112191;28;19927;-77
2022/07/20 06:26:17;;;;;;;;;;;;;;;;;;5113400;28;19915;-77
2022/07/20 06:28:43;;;;;;;;;;;;;;;;;;5113364;28;19916;-77
2022/07/20 06:31:08;;;;;;;;;;;;;;;;;;5112548;28;19935;-77
2022/07/20 06:33:33;;;;;;;;;;;;;;;;;;5113457;28;19920;-77
2022/07/20 06:35:59;;;;;;;;;;;;;;;;;;5112034;28;19923;-77
2022/07/20 06:38:25;;;;;;;;;;;;;;;;;;5113287;28;19919;-77
2022/07/20 06:40:50;;;;;;;;;;;;;;;;;;5112433;28;20259;-77
2022/07/20 06:43:15;;;;;;;;;;;;;;;;;;5113398;28;19963;-77
2022/07/20 06:45:41;;;;;;;;;;;;;;;;;;5113522;28;19923;-77
2022/07/20 06:48:06;;;;;;;;;;;;;;;;;;5112919;28;19947;-77
2022/07/20 06:50:31;;;;;;;;;;;;;;;;;;5113371;28;19919;-78
2022/07/20 06:52:56;;;;;;;;;;;;;;;;;;5114353;28;19945;-77
2022/07/20 06:55:22;;;;;;;;;;;;;;;;;;5117335;28;19920;-77
2022/07/20 06:57:47;;;;;;;;;;;;;;;;;;5116198;28;19922;-77
2022/07/20 07:00:13;;;;;;;;;;;;;;;;;;5116548;28;19927;-77
2022/07/20 07:02:38;;;;;;;;;;;;;;;;;;5099737;28;20076;-78
2022/07/20 07:05:04;;;;;;;;;;;;;;;;;;5116312;28;20347;-78
2022/07/20 07:07:29;;;;;;;;;;;;;;;;;;5100118;28;19959;-78
2022/07/20 07:09:55;;;;;;;;;;;;;;;;;;5117527;28;19998;-78
2022/07/20 07:12:20;;;;;;;;;;;;;;;;;;5100451;28;19920;-77
2022/07/20 07:14:45;;;;;;;;;;;;;;;;;;5100861;28;20003;-79
2022/07/20 07:17:11;;;;;;;;;;;;;;;;;;5118636;28;20362;-78
2022/07/20 07:19:38;;;;;;;;;;;;;;;;;;5118842;28;19915;-79
2022/07/20 07:22:03;;;;;;;;;;;;;;;;;;5116554;28;19973;-78
2022/07/20 07:24:28;;;;;;;;;;;;;;;;;;5116889;28;20002;-78
2022/07/20 07:26:54;;;;;;;;;;;;;;;;;;5117486;28;19916;-78
2022/07/20 07:29:19;;;;;;;;;;;;;;;;;;5116017;28;19915;-77
2022/07/20 07:31:45;;;;;;;;;;;;;;;;;;5116111;28;19919;-78
2022/07/20 07:34:10;;;;;;;;;;;;;;;;;;5115248;28;19922;-77
2022/07/20 07:36:35;;;;;;;;;;;;;;;;;;5115363;28;20374;-76
2022/07/20 07:39:01;;;;;;;;;;;;;;;;;;5115313;28;19916;-77
2022/07/20 07:41:26;;;;;;;;;;;;;;;;;;5116110;28;19916;-77
2022/07/20 07:43:51;;;;;;;;;;;;;;;;;;5097915;28;19942;-77
2022/07/20 07:46:17;;;;;;;;;;;;;;;;;;5115028;28;20026;-76
2022/07/20 07:48:42;;;;;;;;;;;;;;;;;;5116156;28;20018;-76
2022/07/20 07:51:07;;;;;;;;;;;;;;;;;;5115998;28;19998;-77
2022/07/20 07:53:32;;;;;;;;;;;;;;;;;;5115810;28;19942;-77
2022/07/20 07:55:58;;;;;;;;;;;;;;;;;;5097501;28;20264;-77
2022/07/20 07:58:23;;;;;;;;;;;;;;;;;;5114407;28;19918;-77
2022/07/20 08:00:49;;;;;;;;;;;;;;;;;;5096876;28;19923;-77
2022/07/20 08:03:14;;;;;;;;;;;;;;;;;;5096725;28;19965;-77
2022/07/20 08:05:39;;;;;;;;;;;;;;;;;;5114199;28;19915;-77
2022/07/20 08:08:06;;;;;;;;;;;;;;;;;;5114163;28;19954;-77
2022/07/20 08:10:32;;;;;;;;;;;;;;;;;;5114203;28;20433;-77
2022/07/20 08:12:57;;;;;;;;;;;;;;;;;;5114513;28;19955;-77
2022/07/20 08:15:22;;;;;;;;;;;;;;;;;;5114920;28;19919;-77
2022/07/20 08:17:47;;;;;;;;;;;;;;;;;;5116019;28;20361;-77
2022/07/20 08:20:13;;;;;;;;;;;;;;;;;;5115229;28;19923;-77
2022/07/20 08:22:38;;;;;;;;;;;;;;;;;;5115879;28;20337;-77
2022/07/20 08:25:04;;;;;;;;;;;;;;;;;;5096715;28;20461;-76
2022/07/20 08:27:29;;;;;;;;;;;;;;;;;;5113807;28;19916;-77
2022/07/20 08:29:58;;;;;;;;;;;;;;;;;;5113777;28;19915;-77
2022/07/20 08:32:24;;;;;;;;;;;;;;;;;;5115271;28;19920;-77
2022/07/20 08:34:49;;;;;;;;;;;;;;;;;;5098188;28;19974;-77
2022/07/20 08:37:14;;;;;;;;;;;;;;;;;;5116041;28;19928;-77
2022/07/20 08:39:40;;;;;;;;;;;;;;;;;;5114776;28;19919;-76
2022/07/20 08:42:05;;;;;;;;;;;;;;;;;;5114193;28;20121;-76
2022/07/20 08:44:30;;;;;;;;;;;;;;;;;;5114435;28;19911;-76
2022/07/20 08:46:56;;;;;;;;;;;;;;;;;;5115420;28;20008;-77
2022/07/20 08:49:21;;;;;;;;;;;;;;;;;;5115388;28;20382;-77
2022/07/20 08:51:46;;;;;;;;;;;;;;;;;;5115125;28;19919;-76
2022/07/20 08:54:11;;;;;;;;;;;;;;;;;;5096607;28;19919;-77
2022/07/20 08:56:37;;;;;;;;;;;;;;;;;;5113750;28;19992;-76
2022/07/20 08:59:02;;;;;;;;;;;;;;;;;;5113251;28;19919;-77
2022/07/20 09:01:27;;;;;;;;;;;;;;;;;;5115079;28;19931;-77
2022/07/20 09:04:04;;;;;;;;;;;;;;;;;;5113623;28;20262;-77
2022/07/20 09:06:29;;;;;;;;;;;;;;;;;;5113769;28;20357;-77
2022/07/20 09:09:02;;;;;;;;;;;;;;;;;;5113228;28;20010;-76
2022/07/20 09:11:27;;;;;;;;;;;;;;;;;;5113548;28;19965;-77
2022/07/20 09:13:53;;;;;;;;;;;;;;;;;;5114561;28;19916;-76
2022/07/20 09:16:29;;;;;;;;;;;;;;;;;;5114022;28;19955;-76
2022/07/20 09:18:54;;;;;;;;;;;;;;;;;;5095944;28;19922;-77
2022/07/20 09:21:20;;;;;;;;;;;;;;;;;;5114102;28;19999;-76
2022/07/20 09:23:47;;;;;;;;;;;;;;;;;;5113043;28;20019;-77
2022/07/20 09:26:16;;;;;;;;;;;;;;;;;;5096123;28;20397;-77
2022/07/20 09:28:45;;;;;;;;;;;;;;;;;;5114437;28;19915;-77
2022/07/20 09:31:19;;;;;;;;;;;;;;;;;;5114362;28;20352;-77
2022/07/20 09:33:50;;;;;;;;;;;;;;;;;;5114655;28;19911;-76
2022/07/20 09:36:16;;;;;;;;;;;;;;;;;;5114028;28;19926;-76
2022/07/20 09:38:41;;;;;;;;;;;;;;;;;;5095822;28;19915;-77
2022/07/20 09:41:29;;;;;;;;;;;;;;;;;;5095768;28;19988;-77
2022/07/20 09:43:55;;;;;;;;;;;;;;;;;;5095707;28;19912;-77
2022/07/20 09:46:22;;;;;;;;;;;;;;;;;;5095743;28;19911;-76
2022/07/20 09:48:47;;;;;;;;;;;;;;;;;;5113063;28;19916;-77
2022/07/20 09:51:31;;;;;;;;;;;;;;;;;;5112675;28;20037;-77
2022/07/20 09:54:01;;;;;;;;;;;;;;;;;;5111862;28;20023;-76
2022/07/20 09:56:26;;;;;;;;;;;;;;;;;;5111731;28;19961;-77
2022/07/20 09:58:53;;;;;;;;;;;;;;;;;;5094756;28;19935;-77
2022/07/20 10:01:19;;;;;;;;;;;;;;;;;;5112090;28;19924;-77
2022/07/20 10:03:46;;;;;;;;;;;;;;;;;;5095588;28;20386;-76
2022/07/20 10:06:11;;;;;;;;;;;;;;;;;;5111624;28;19941;-77
2022/07/20 10:08:36;;;;;;;;;;;;;;;;;;5094936;28;19915;-77
2022/07/20 10:11:01;;;;;;;;;;;;;;;;;;5094541;28;19922;-77
2022/07/20 10:13:27;;;;;;;;;;;;;;;;;;5111819;28;19923;-77
2022/07/20 10:15:55;;;;;;;;;;;;;;;;;;5111692;28;19916;-77
2022/07/20 10:18:21;;;;;;;;;;;;;;;;;;5111940;28;19923;-77
2022/07/20 10:20:46;;;;;;;;;;;;;;;;;;5111474;28;19924;-77
2022/07/20 10:23:14;;;;;;;;;;;;;;;;;;5094634;28;19916;-77
2022/07/20 10:25:43;;;;;;;;;;;;;;;;;;5111911;28;19970;-77
2022/07/20 10:28:24;;;;;;;;;;;;;;;;;;5117051;28;19916;-76
2022/07/20 10:30:53;;;;;;;;;;;;;;;;;;5117101;28;19916;-76
2022/07/20 10:33:18;;;;;;;;;;;;;;;;;;5098633;28;20394;-77
2022/07/20 10:35:45;;;;;;;;;;;;;;;;;;5115501;28;19996;-76
2022/07/20 10:38:11;;;;;;;;;;;;;;;;;;5115720;28;19919;-77
2022/07/20 10:41:31;;;;;;;;;;;;;;;;;;5115706;28;19911;-77
2022/07/20 10:43:21;;;;;;;;;;;;;;;;;;5115525;28;19920;-77
2022/07/20 10:45:46;;;;;;;;;;;;;;;;;;5115463;28;19922;-77
2022/07/20 10:48:12;;;;;;;;;;;;;;;;;;5116716;28;19920;-76
2022/07/20 10:50:38;;;;;;;;;;;;;;;;;;5115808;28;19916;-77
2022/07/20 10:53:10;;;;;;;;;;;;;;;;;;5116114;28;20285;-76
2022/07/20 10:55:35;;;;;;;;;;;;;;;;;;5117615;28;19912;-76
2022/07/20 10:58:01;;;;;;;;;;;;;;;;;;5117235;28;19999;-76
2022/07/20 11:00:34;;;;;;;;;;;;;;;;;;5117734;28;19924;-74
2022/07/20 11:03:00;;;;;;;;;;;;;;;;;;5116185;28;20400;-76
2022/07/20 11:05:25;;;;;;;;;;;;;;;;;;5116385;28;19947;-77
2022/07/20 11:07:51;;;;;;;;;;;;;;;;;;5116217;28;19916;-77
2022/07/20 11:10:24;;;;;;;;;;;;;;;;;;5116012;28;19916;-77
2022/07/20 11:12:58;;;;;;;;;;;;;;;;;;5098470;28;19916;-76
2022/07/20 11:15:23;;;;;;;;;;;;;;;;;;5115540;28;20382;-76
2022/07/20 11:17:48;;;;;;;;;;;;;;;;;;5116893;28;19920;-76
2022/07/20 11:20:17;;;;;;;;;;;;;;;;;;5098476;28;19918;-76
2022/07/20 11:22:42;;;;;;;;;;;;;;;;;;5115414;28;19927;-76
2022/07/20 11:25:08;;;;;;;;;;;;;;;;;;5115508;28;19919;-75
2022/07/20 11:27:33;;;;;;;;;;;;;;;;;;5115367;28;19923;-76
2022/07/20 11:29:58;;;;;;;;;;;;;;;;;;5115479;28;20380;-76
2022/07/20 11:32:27;;;;;;;;;;;;;;;;;;5115719;28;19931;-76
2022/07/20 11:34:53;;;;;;;;;;;;;;;;;;5116406;28;19964;-76
2022/07/20 11:37:19;;;;;;;;;;;;;;;;;;5114806;28;19912;-77
2022/07/20 11:39:45;;;;;;;;;;;;;;;;;;5116225;28;20316;-77
2022/07/20 11:42:11;;;;;;;;;;;;;;;;;;5115655;28;19912;-76
2022/07/20 11:44:37;;;;;;;;;;;;;;;;;;5116484;28;19951;-78
2022/07/20 11:47:03;;;;;;;;;;;;;;;;;;5115280;28;19916;-77
2022/07/20 11:49:28;;;;;;;;;;;;;;;;;;5116733;28;19915;-76
2022/07/20 11:52:01;;;;;;;;;;;;;;;;;;5097690;28;19911;-77
2022/07/20 11:54:27;;;;;;;;;;;;;;;;;;5115288;28;19912;-78
2022/07/20 11:56:53;;;;;;;;;;;;;;;;;;5098379;28;20010;-77
2022/07/20 11:59:18;;;;;;;;;;;;;;;;;;5116213;28;19951;-77
2022/07/20 12:01:44;;;;;;;;;;;;;;;;;;5098023;28;20413;-77
2022/07/20 12:04:10;;;;;;;;;;;;;;;;;;5114353;28;19969;-76
2022/07/20 12:06:36;;;;;;;;;;;;;;;;;;5097233;28;19916;-76
2022/07/20 12:09:02;;;;;;;;;;;;;;;;;;5115179;28;19918;-76
2022/07/20 12:11:30;;;;;;;;;;;;;;;;;;5115573;28;20006;-76
2022/07/20 12:13:55;;;;;;;;;;;;;;;;;;5115354;28;19920;-76
2022/07/20 12:16:20;;;;;;;;;;;;;;;;;;5113986;28;20315;-76
2022/07/20 12:18:52;;;;;;;;;;;;;;;;;;5115344;28;19916;-77
2022/07/20 12:21:19;;;;;;;;;;;;;;;;;;5097407;28;19915;-77
2022/07/20 12:23:44;;;;;;;;;;;;;;;;;;5114156;28;20342;-77
2022/07/20 12:26:23;;;;;;;;;;;;;;;;;;5115418;28;20024;-77
2022/07/20 12:28:48;;;;;;;;;;;;;;;;;;5114053;28;19912;-77
2022/07/20 12:31:13;;;;;;;;;;;;;;;;;;5115793;28;19939;-77
2022/07/20 12:33:39;;;;;;;;;;;;;;;;;;5115300;28;19922;-77
2022/07/20 12:36:05;;;;;;;;;;;;;;;;;;5113669;28;19911;-77
2022/07/20 12:38:31;;;;;;;;;;;;;;;;;;5114363;28;19912;-77
2022/07/20 12:40:57;;;;;;;;;;;;;;;;;;5113525;28;19916;-77
2022/07/20 12:43:32;;;;;;;;;;;;;;;;;;5114139;28;19926;-77
2022/07/20 12:46:01;;;;;;;;;;;;;;;;;;5113788;28;19965;-77
2022/07/20 12:48:26;;;;;;;;;;;;;;;;;;5115049;28;19968;-77
2022/07/20 12:50:51;;;;;;;;;;;;;;;;;;5113383;28;20102;-77
2022/07/20 12:53:17;;;;;;;;;;;;;;;;;;5113107;28;19919;-77
2022/07/20 12:55:43;;;;;;;;;;;;;;;;;;5114803;28;19993;-77
2022/07/20 12:58:35;;;;;;;;;;;;;;;;;;5097621;28;19926;-77
2022/07/20 13:01:08;;;;;;;;;;;;;;;;;;5114711;28;19924;-77
2022/07/20 13:03:33;;;;;;;;;;;;;;;;;;5096533;28;19912;-77
2022/07/20 13:05:59;;;;;;;;;;;;;;;;;;5096396;28;20341;-77
2022/07/20 13:08:24;;;;;;;;;;;;;;;;;;5113785;28;19912;-77
2022/07/20 13:10:50;;;;;;;;;;;;;;;;;;5113556;28;20294;-77
2022/07/20 13:13:15;;;;;;;;;;;;;;;;;;5112785;28;20045;-77
2022/07/20 13:15:40;;;;;;;;;;;;;;;;;;5113037;28;19916;-77
2022/07/20 13:18:06;;;;;;;;;;;;;;;;;;5095832;28;20395;-77
2022/07/20 13:20:31;;;;;;;;;;;;;;;;;;5115204;28;19916;-77
2022/07/20 13:22:57;;;;;;;;;;;;;;;;;;5114739;28;19922;-77
2022/07/20 13:25:23;;;;;;;;;;;;;;;;;;5112331;28;20267;-77
2022/07/20 13:27:49;;;;;;;;;;;;;;;;;;5113554;28;20330;-77
2022/07/20 13:30:14;;;;;;;;;;;;;;;;;;5095843;28;19930;-78
2022/07/20 13:32:39;;;;;;;;;;;;;;;;;;5114084;28;19947;-77
2022/07/20 13:35:05;;;;;;;;;;;;;;;;;;5095658;28;19918;-77
2022/07/20 13:37:30;;;;;;;;;;;;;;;;;;5113758;28;19920;-77
2022/07/20 13:39:56;;;;;;;;;;;;;;;;;;5095737;28;19912;-77
2022/07/20 13:42:21;;;;;;;;;;;;;;;;;;5114087;28;19927;-77
2022/07/20 13:44:47;;;;;;;;;;;;;;;;;;5113640;28;20297;-77
2022/07/20 13:47:12;;;;;;;;;;;;;;;;;;5112414;28;19926;-77
2022/07/20 13:49:39;;;;;;;;;;;;;;;;;;5112409;28;20248;-77
2022/07/20 13:52:05;;;;;;;;;;;;;;;;;;5095355;28;19922;-77
2022/07/20 13:54:30;;;;;;;;;;;;;;;;;;5113480;28;19916;-77
2022/07/20 13:56:55;;;;;;;;;;;;;;;;;;5112493;28;19916;-77
2022/07/20 13:59:20;;;;;;;;;;;;;;;;;;5074834;28;20305;-77
2022/07/20 14:01:46;;;;;;;;;;;;;;;;;;5092821;28;19973;-78
2022/07/20 14:04:11;;;;;;;;;;;;;;;;;;5091696;28;20319;-78
2022/07/20 14:06:37;;;;;;;;;;;;;;;;;;5091693;28;19916;-78
2022/07/20 14:09:03;;;;;;;;;;;;;;;;;;5091694;28;19973;-78
2022/07/20 14:11:28;;;;;;;;;;;;;;;;;;5074815;28;19919;-78
2022/07/20 14:13:54;;;;;;;;;;;;;;;;;;5091670;28;20033;-77
2022/07/20 14:16:20;;;;;;;;;;;;;;;;;;5092884;28;19923;-78
2022/07/20 14:18:45;;;;;;;;;;;;;;;;;;5091812;28;19916;-78
2022/07/20 14:21:12;;;;;;;;;;;;;;;;;;5091509;28;19998;-78
2022/07/20 14:23:37;;;;;;;;;;;;;;;;;;5091451;28;19928;-78
2022/07/20 14:26:02;;;;;;;;;;;;;;;;;;5091468;28;19916;-78
2022/07/20 14:28:28;;;;;;;;;;;;;;;;;;5091633;28;20369;-78
2022/07/20 14:30:53;;;;;;;;;;;;;;;;;;5093586;28;19942;-78
2022/07/20 14:33:18;;;;;;;;;;;;;;;;;;5091869;28;19912;-77
2022/07/20 14:35:45;;;;;;;;;;;;;;;;;;5091559;28;19935;-77
2022/07/20 14:38:10;;;;;;;;;;;;;;;;;;5091569;28;19919;-79
2022/07/20 14:40:35;;;;;;;;;;;;;;;;;;5091469;28;19916;-78
2022/07/20 14:43:01;;;;;;;;;;;;;;;;;;5092794;28;19916;-78
2022/07/20 14:45:26;;;;;;;;;;;;;;;;;;5092909;28;20282;-77
2022/07/20 14:47:51;;;;;;;;;;;;;;;;;;5092585;28;19916;-77
2022/07/20 14:50:16;;;;;;;;;;;;;;;;;;5092691;28;20267;-77
2022/07/20 14:52:42;;;;;;;;;;;;;;;;;;5091384;28;19920;-77
2022/07/20 14:55:07;;;;;;;;;;;;;;;;;;5091567;28;19916;-78
2022/07/20 14:57:33;;;;;;;;;;;;;;;;;;5091298;28;20409;-78
2022/07/20 14:59:58;;;;;;;;;;;;;;;;;;5091212;28;19924;-79
2022/07/20 15:02:24;;;;;;;;;;;;;;;;;;5091217;28;20274;-78
2022/07/20 15:04:49;;;;;;;;;;;;;;;;;;5091518;28;19919;-78
2022/07/20 15:07:15;;;;;;;;;;;;;;;;;;5091159;28;19995;-78
2022/07/20 15:09:40;;;;;;;;;;;;;;;;;;5092666;28;20430;-77
2022/07/20 15:12:05;;;;;;;;;;;;;;;;;;5092751;28;19916;-77
2022/07/20 15:14:31;;;;;;;;;;;;;;;;;;5095889;28;19922;-80
2022/07/20 15:16:56;;;;;;;;;;;;;;;;;;5096456;28;19917;-77
2022/07/20 15:19:21;;;;;;;;;;;;;;;;;;5096354;28;19995;-80
2022/07/20 15:21:47;;;;;;;;;;;;;;;;;;5096181;28;19926;-77
2022/07/20 15:24:12;;;;;;;;;;;;;;;;;;5094892;28;19920;-78
2022/07/20 15:26:38;;;;;;;;;;;;;;;;;;5096258;28;19916;-81
2022/07/20 15:29:03;;;;;;;;;;;;;;;;;;5094550;28;19958;-79
2022/07/20 15:31:29;;;;;;;;;;;;;;;;;;5096383;28;19920;-77
2022/07/20 15:33:54;;;;;;;;;;;;;;;;;;5096184;28;20354;-77
2022/07/20 15:36:19;;;;;;;;;;;;;;;;;;5095933;28;19916;-79
2022/07/20 15:38:45;;;;;;;;;;;;;;;;;;5095997;28;20323;-79
2022/07/20 15:41:10;;;;;;;;;;;;;;;;;;5094166;28;19927;-78
2022/07/20 15:43:36;;;;;;;;;;;;;;;;;;5095983;28;19923;-78
2022/07/20 15:46:02;;;;;;;;;;;;;;;;;;5094578;28;19970;-81
2022/07/20 15:48:28;;;;;;;;;;;;;;;;;;5094593;28;19916;-80
2022/07/20 15:50:53;;;;;;;;;;;;;;;;;;5094302;28;19923;-79
2022/07/20 15:53:18;;;;;;;;;;;;;;;;;;5094160;28;19924;-80
2022/07/20 15:55:45;;;;;;;;;;;;;;;;;;5094313;28;19912;-80
2022/07/20 15:58:11;;;;;;;;;;;;;;;;;;5094257;28;19912;-81
2022/07/20 16:00:36;;;;;;;;;;;;;;;;;;5094085;28;19931;-80
2022/07/20 16:03:01;;;;;;;;;;;;;;;;;;5094470;28;19920;-79
2022/07/20 16:05:27;;;;;;;;;;;;;;;;;;5093918;28;19916;-80
2022/07/20 16:07:53;;;;;;;;;;;;;;;;;;5095005;28;20062;-79
2022/07/20 16:10:19;;;;;;;;;;;;;;;;;;5093777;28;19912;-80
2022/07/20 16:12:44;;;;;;;;;;;;;;;;;;5093704;28;19918;-79
2022/07/20 16:15:10;;;;;;;;;;;;;;;;;;5094882;28;19951;-80
2022/07/20 16:17:38;;;;;;;;;;;;;;;;;;5093946;28;19912;-81
2022/07/20 16:20:03;;;;;;;;;;;;;;;;;;5094848;28;19920;-81
2022/07/20 16:22:28;;;;;;;;;;;;;;;;;;5095140;28;20247;-80
2022/07/20 16:24:54;;;;;;;;;;;;;;;;;;5093240;28;19950;-80
2022/07/20 16:27:19;;;;;;;;;;;;;;;;;;5093804;28;19923;-79
2022/07/20 16:29:44;;;;;;;;;;;;;;;;;;5094818;28;19923;-80
2022/07/20 16:32:10;;;;;;;;;;;;;;;;;;5095635;28;20294;-78
2022/07/20 16:34:35;;;;;;;;;;;;;;;;;;5093850;28;20049;-78
2022/07/20 16:37:01;;;;;;;;;;;;;;;;;;5093974;28;19920;-79
2022/07/20 16:39:26;;;;;;;;;;;;;;;;;;5093862;28;20307;-79